createdAt,value
2023-08-11T00:00:05.773Z,22.13
2023-08-11T00:03:15.713Z,22.12
2023-08-11T00:06:19.085Z,22.12
2023-08-11T00:09:23.670Z,22.12
2023-08-11T00:12:26.705Z,22.11
2023-08-11T00:15:32.223Z,22.09
2023-08-11T00:18:36.529Z,22.10
2023-08-11T00:21:39.489Z,22.11
2023-08-11T00:24:42.446Z,22.12
2023-08-11T00:27:45.363Z,22.11
2023-08-11T00:30:48.291Z,22.11
2023-08-11T00:33:53.784Z,22.11
2023-08-11T00:36:57.056Z,22.11
2023-08-11T00:40:00.417Z,22.11
2023-08-11T00:43:03.404Z,22.11
2023-08-11T00:46:11.623Z,22.10
2023-08-11T00:49:16.203Z,22.09
2023-08-11T00:52:20.061Z,22.08
2023-08-11T00:55:24.181Z,22.08
2023-08-11T00:58:27.336Z,22.08
2023-08-11T01:01:31.100Z,22.08
2023-08-11T01:04:35.692Z,22.07
2023-08-11T01:07:45.886Z,22.08
2023-08-11T01:10:54.725Z,22.08
2023-08-11T01:14:05.846Z,22.07
2023-08-11T01:17:15.049Z,22.07
2023-08-11T01:20:21.100Z,22.07
2023-08-11T01:23:26.429Z,22.06
2023-08-11T01:26:29.362Z,22.07
2023-08-11T01:29:32.617Z,22.06
2023-08-11T01:32:35.610Z,22.07
2023-08-11T01:35:41.963Z,22.06
2023-08-11T01:38:47.984Z,22.06
2023-08-11T01:41:51.051Z,22.06
2023-08-11T01:44:54.767Z,22.05
2023-08-11T01:47:58.376Z,22.05
2023-08-11T01:51:01.467Z,22.04
2023-08-11T01:54:06.011Z,22.05
2023-08-11T01:57:09.552Z,22.04
2023-08-11T02:00:14.415Z,22.03
2023-08-11T02:03:17.936Z,22.03
2023-08-11T02:06:21.027Z,22.03
2023-08-11T02:09:25.421Z,22.03
2023-08-11T02:12:28.493Z,22.02
2023-08-11T02:15:31.458Z,22.02
2023-08-11T02:18:34.690Z,22.02
2023-08-11T02:21:39.356Z,22.03
2023-08-11T02:24:43.647Z,22.02
2023-08-11T02:27:46.637Z,22.01
2023-08-11T02:30:49.781Z,22.02
2023-08-11T02:33:52.908Z,22.02
2023-08-11T02:36:55.964Z,22.00
2023-08-11T02:40:00.391Z,22.00
2023-08-11T02:43:03.417Z,22.00
2023-08-11T02:46:08.085Z,21.99
2023-08-11T02:49:11.428Z,22.00
2023-08-11T02:52:14.684Z,21.99
2023-08-11T02:55:19.063Z,21.99
2023-08-11T02:58:22.629Z,21.98
2023-08-11T03:01:25.634Z,21.99
2023-08-11T03:04:28.733Z,21.99
2023-08-11T03:07:32.323Z,21.99
2023-08-11T03:10:46.573Z,21.98
2023-08-11T03:13:55.248Z,21.97
2023-08-11T03:16:58.342Z,21.98
2023-08-11T03:20:01.389Z,21.97
2023-08-11T03:23:05.363Z,21.96
2023-08-11T03:26:10.724Z,21.97
2023-08-11T03:29:14.379Z,21.97
2023-08-11T03:32:19.523Z,21.96
2023-08-11T03:35:23.762Z,21.96
2023-08-11T03:38:28.296Z,21.95
2023-08-11T03:41:32.576Z,21.96
2023-08-11T03:44:35.617Z,21.96
2023-08-11T03:47:40.105Z,21.96
2023-08-11T03:50:44.100Z,21.95
2023-08-11T03:53:47.065Z,21.95
2023-08-11T03:56:52.012Z,21.95
2023-08-11T03:59:54.981Z,21.96
2023-08-11T04:02:58.199Z,21.96
2023-08-11T04:06:02.059Z,21.95
2023-08-11T04:09:05.327Z,21.95
2023-08-11T04:12:10.560Z,21.96
2023-08-11T04:15:13.878Z,21.95
2023-08-11T04:18:17.045Z,21.94
2023-08-11T04:21:20.016Z,21.94
2023-08-11T04:24:23.371Z,21.94
2023-08-11T04:27:27.758Z,21.95
2023-08-11T04:30:30.801Z,21.94
2023-08-11T04:33:36.095Z,21.94
2023-08-11T04:36:39.308Z,21.94
2023-08-11T04:39:42.804Z,21.95
2023-08-11T04:42:47.984Z,21.96
2023-08-11T04:45:56.376Z,21.94
2023-08-11T04:48:59.968Z,21.94
2023-08-11T04:52:04.858Z,21.94
2023-08-11T04:55:09.130Z,21.94
2023-08-11T04:58:14.498Z,21.94
2023-08-11T05:01:17.790Z,21.95
2023-08-11T05:04:20.788Z,21.94
2023-08-11T05:07:23.716Z,21.94
2023-08-11T05:10:26.665Z,21.94
2023-08-11T05:13:31.018Z,21.94
2023-08-11T05:16:34.291Z,21.94
2023-08-11T05:19:37.900Z,21.93
2023-08-11T05:22:41.022Z,21.94
2023-08-11T05:25:44.132Z,21.94
2023-08-11T05:28:48.459Z,21.94
2023-08-11T05:31:51.647Z,21.95
2023-08-11T05:34:56.731Z,21.94
2023-08-11T05:38:00.492Z,21.95
2023-08-11T05:41:04.286Z,21.95
2023-08-11T05:44:09.558Z,21.95
2023-08-11T05:47:13.091Z,21.94
2023-08-11T05:50:16.172Z,21.94
2023-08-11T05:53:19.252Z,21.93
2023-08-11T05:56:22.257Z,21.93
2023-08-11T05:59:26.624Z,21.94
2023-08-11T06:02:29.601Z,21.94
2023-08-11T06:05:32.589Z,21.95
2023-08-11T06:08:35.603Z,21.96
2023-08-11T06:11:38.609Z,21.96
2023-08-11T06:14:42.943Z,21.96
2023-08-11T06:17:50.478Z,21.96
2023-08-11T06:20:54.287Z,21.95
2023-08-11T06:23:57.227Z,21.95
2023-08-11T06:27:00.169Z,21.96
2023-08-11T06:30:05.548Z,21.96
2023-08-11T06:33:08.592Z,21.96
2023-08-11T06:36:11.530Z,21.95
2023-08-11T06:39:14.651Z,21.96
2023-08-11T06:42:17.557Z,21.96
2023-08-11T06:45:32.461Z,21.97
2023-08-11T06:48:35.446Z,21.97
2023-08-11T06:51:38.490Z,21.97
2023-08-11T06:54:41.991Z,21.96
2023-08-11T06:57:45.294Z,21.97
2023-08-11T07:00:49.672Z,21.96
2023-08-11T07:03:53.165Z,21.95
2023-08-11T07:06:56.442Z,21.96
2023-08-11T07:10:03.390Z,21.96
2023-08-11T07:13:07.164Z,21.95
2023-08-11T07:16:11.603Z,21.96
2023-08-11T07:19:14.595Z,21.96
2023-08-11T07:22:18.366Z,21.97
2023-08-11T07:25:21.351Z,21.98
2023-08-11T07:28:24.385Z,21.99
2023-08-11T07:31:28.776Z,22.00
2023-08-11T07:34:31.829Z,22.00
2023-08-11T07:37:35.161Z,22.00
2023-08-11T07:40:38.105Z,22.00
2023-08-11T07:43:41.204Z,21.99
2023-08-11T07:46:45.648Z,22.00
2023-08-11T07:49:48.719Z,22.01
2023-08-11T07:52:51.665Z,22.02
2023-08-11T07:55:54.629Z,22.03
2023-08-11T07:58:57.532Z,22.05
2023-08-11T08:02:02.134Z,22.06
2023-08-11T08:05:12.296Z,22.08
2023-08-11T08:08:16.851Z,22.08
2023-08-11T08:11:20.528Z,22.08
2023-08-11T08:14:23.495Z,22.10
2023-08-11T08:17:28.065Z,22.11
2023-08-11T08:20:32.374Z,22.12
2023-08-11T08:23:35.636Z,22.14
2023-08-11T08:26:38.973Z,22.14
2023-08-11T08:29:41.961Z,22.13
2023-08-11T08:32:46.294Z,22.15
2023-08-11T08:35:49.337Z,22.16
2023-08-11T08:38:52.276Z,22.16
2023-08-11T08:41:57.126Z,22.16
2023-08-11T08:45:00.606Z,22.18
2023-08-11T08:48:09.885Z,22.19
2023-08-11T08:51:13.885Z,22.20
2023-08-11T08:54:17.085Z,22.23
2023-08-11T08:57:21.784Z,22.23
2023-08-11T09:00:25.284Z,22.21
2023-08-11T09:03:30.501Z,22.21
2023-08-11T09:06:33.856Z,22.22
2023-08-11T09:09:36.843Z,22.23
2023-08-11T09:12:39.897Z,22.23
2023-08-11T09:15:43.393Z,22.25
2023-08-11T09:18:48.290Z,22.25
2023-08-11T09:21:51.581Z,22.25
2023-08-11T09:24:56.989Z,22.26
2023-08-11T09:28:00.744Z,22.26
2023-08-11T09:31:03.788Z,22.27
2023-08-11T09:34:16.275Z,22.27
2023-08-11T09:37:19.508Z,22.27
2023-08-11T09:40:23.550Z,22.27
2023-08-11T09:43:26.542Z,22.28
2023-08-11T09:46:29.860Z,22.28
2023-08-11T09:49:34.274Z,22.30
2023-08-11T09:52:38.391Z,22.33
2023-08-11T09:55:42.940Z,22.34
2023-08-11T09:58:49.883Z,22.34
2023-08-11T10:01:55.435Z,22.33
2023-08-11T10:05:05.410Z,22.35
2023-08-11T10:08:11.602Z,22.37
2023-08-11T10:11:15.679Z,22.34
2023-08-11T10:14:23.397Z,22.35
2023-08-11T10:17:27.198Z,22.36
2023-08-11T10:20:32.421Z,22.37
2023-08-11T10:23:36.008Z,22.37
2023-08-11T10:26:39.829Z,22.40
2023-08-11T10:29:48.201Z,22.42
2023-08-11T10:32:57.893Z,22.43
2023-08-11T10:36:03.500Z,22.42
2023-08-11T10:39:08.369Z,22.43
2023-08-11T10:42:13.830Z,22.45
2023-08-11T10:45:17.628Z,22.45
2023-08-11T10:48:24.222Z,22.46
2023-08-11T10:51:33.693Z,22.47
2023-08-11T10:54:36.765Z,22.50
2023-08-11T10:57:39.696Z,22.50
2023-08-11T11:00:43.165Z,22.54
2023-08-11T11:03:50.398Z,22.56
2023-08-11T11:06:55.185Z,22.59
2023-08-11T11:09:58.112Z,22.59
2023-08-11T11:13:01.002Z,22.60
2023-08-11T11:16:04.025Z,22.62
2023-08-11T11:19:09.128Z,22.64
2023-08-11T11:22:15.297Z,22.64
2023-08-11T11:25:19.665Z,22.64
2023-08-11T11:28:22.807Z,22.66
2023-08-11T11:31:27.840Z,22.65
2023-08-11T11:34:31.018Z,22.66
2023-08-11T11:37:36.157Z,22.67
2023-08-11T11:40:39.096Z,22.71
2023-08-11T11:43:42.088Z,22.70
2023-08-11T11:46:45.090Z,22.69
2023-08-11T11:49:55.288Z,22.68
2023-08-11T11:52:59.624Z,22.71
2023-08-11T11:56:04.405Z,22.69
2023-08-11T11:59:08.000Z,22.69
2023-08-11T12:02:14.287Z,22.69
2023-08-11T12:05:18.164Z,22.69
2023-08-11T12:08:26.026Z,22.71
2023-08-11T12:11:31.734Z,22.72
2023-08-11T12:14:35.271Z,22.75
2023-08-11T12:17:38.756Z,22.77
2023-08-11T12:20:42.536Z,22.76
2023-08-11T12:23:47.008Z,22.77
2023-08-11T12:26:50.193Z,22.77
2023-08-11T12:29:53.115Z,22.76
2023-08-11T12:32:56.130Z,22.77
2023-08-11T12:35:59.408Z,22.81
2023-08-11T12:39:04.540Z,22.80
2023-08-11T12:42:07.977Z,22.83
2023-08-11T12:45:12.600Z,22.83
2023-08-11T12:48:16.568Z,22.87
2023-08-11T12:51:19.678Z,22.85
2023-08-11T12:54:24.026Z,22.87
2023-08-11T12:57:26.956Z,22.91
2023-08-11T13:00:30.463Z,22.94
2023-08-11T13:03:33.777Z,22.93
2023-08-11T13:06:36.805Z,22.90
2023-08-11T13:09:41.076Z,22.89
2023-08-11T13:12:46.019Z,22.90
2023-08-11T13:15:49.081Z,22.93
2023-08-11T13:19:01.861Z,22.99
2023-08-11T13:22:06.822Z,22.98
2023-08-11T13:25:12.486Z,23.00
2023-08-11T13:28:15.618Z,23.01
2023-08-11T13:31:18.527Z,23.02
2023-08-11T13:34:21.639Z,23.02
2023-08-11T13:37:24.550Z,23.03
2023-08-11T13:40:29.064Z,23.02
2023-08-11T13:43:36.688Z,23.04
2023-08-11T13:46:40.070Z,23.04
2023-08-11T13:49:43.014Z,23.06
2023-08-11T13:52:45.960Z,23.06
2023-08-11T13:55:51.387Z,23.07
2023-08-11T13:58:54.324Z,23.06
2023-08-11T14:01:57.293Z,23.07
2023-08-11T14:05:00.374Z,23.09
2023-08-11T14:08:03.572Z,23.08
2023-08-11T14:11:08.004Z,23.11
2023-08-11T14:14:10.934Z,23.12
2023-08-11T14:17:13.933Z,23.13
2023-08-11T14:20:16.905Z,23.15
2023-08-11T14:23:19.964Z,23.17
2023-08-11T14:26:24.267Z,23.20
2023-08-11T14:29:27.341Z,23.22
2023-08-11T14:32:30.554Z,23.20
2023-08-11T14:35:33.735Z,23.18
2023-08-11T14:38:36.671Z,23.19
2023-08-11T14:41:40.985Z,23.22
2023-08-11T14:44:44.092Z,23.24
2023-08-11T14:47:47.002Z,23.26
2023-08-11T14:50:49.998Z,23.27
2023-08-11T14:53:52.879Z,23.30
2023-08-11T14:56:57.872Z,23.30
2023-08-11T15:00:00.838Z,23.34
2023-08-11T15:03:03.982Z,23.34
2023-08-11T15:06:07.405Z,23.33
2023-08-11T15:09:10.514Z,23.36
2023-08-11T15:12:14.877Z,23.38
2023-08-11T15:15:17.826Z,23.44
2023-08-11T15:18:23.747Z,23.47
2023-08-11T15:21:26.848Z,23.49
2023-08-11T15:24:29.934Z,23.53
2023-08-11T15:27:34.422Z,23.55
2023-08-11T15:30:37.379Z,23.58
2023-08-11T15:33:40.362Z,23.60
2023-08-11T15:36:43.319Z,23.60
2023-08-11T15:39:46.401Z,23.63
2023-08-11T15:42:50.680Z,23.65
2023-08-11T15:45:54.758Z,23.66
2023-08-11T15:48:58.841Z,23.69
2023-08-11T15:52:01.800Z,23.73
2023-08-11T15:55:04.903Z,23.74
2023-08-11T15:58:09.824Z,23.76
2023-08-11T16:01:12.787Z,23.77
2023-08-11T16:04:15.867Z,23.77
2023-08-11T16:07:18.786Z,23.78
2023-08-11T16:10:21.784Z,23.81
2023-08-11T16:13:26.452Z,23.85
2023-08-11T16:16:29.560Z,23.86
2023-08-11T16:19:33.668Z,23.86
2023-08-11T16:22:36.567Z,23.88
2023-08-11T16:25:39.508Z,23.89
2023-08-11T16:28:44.562Z,23.92
2023-08-11T16:31:48.628Z,23.94
2023-08-11T16:34:51.688Z,23.94
2023-08-11T16:37:54.741Z,23.95
2023-08-11T16:40:58.236Z,23.96
2023-08-11T16:44:02.597Z,23.97
2023-08-11T16:47:05.648Z,23.98
2023-08-11T16:50:09.904Z,24.00
2023-08-11T16:53:13.797Z,23.97
2023-08-11T16:56:17.538Z,23.99
2023-08-11T16:59:21.858Z,24.00
2023-08-11T17:02:24.937Z,24.00
2023-08-11T17:05:27.991Z,24.01
2023-08-11T17:08:31.637Z,24.02
2023-08-11T17:11:34.604Z,24.04
2023-08-11T17:14:38.899Z,24.05
2023-08-11T17:17:42.322Z,24.03
2023-08-11T17:20:45.475Z,24.02
2023-08-11T17:23:49.008Z,23.99
2023-08-11T17:26:51.905Z,23.96
2023-08-11T17:29:56.185Z,23.92
2023-08-11T17:32:59.788Z,23.89
2023-08-11T17:36:02.948Z,23.87
2023-08-11T17:39:07.321Z,23.83
2023-08-11T17:42:10.473Z,23.81
2023-08-11T17:45:15.291Z,23.78
2023-08-11T17:48:18.317Z,23.75
2023-08-11T17:51:21.829Z,23.73
2023-08-11T17:54:24.800Z,23.71
2023-08-11T17:57:27.718Z,23.69
2023-08-11T18:00:32.179Z,23.67
2023-08-11T18:03:35.669Z,23.66
2023-08-11T18:06:38.552Z,23.63
2023-08-11T18:09:41.626Z,23.61
2023-08-11T18:12:44.585Z,23.59
2023-08-11T18:15:48.927Z,23.57
2023-08-11T18:18:51.886Z,23.55
2023-08-11T18:21:54.818Z,23.54
2023-08-11T18:24:57.901Z,23.51
2023-08-11T18:28:00.841Z,23.52
2023-08-11T18:31:05.664Z,23.50
2023-08-11T18:34:08.612Z,23.48
2023-08-11T18:37:11.730Z,23.48
2023-08-11T18:40:15.677Z,23.47
2023-08-11T18:43:18.695Z,23.45
2023-08-11T18:46:23.036Z,23.44
2023-08-11T18:49:28.258Z,23.43
2023-08-11T18:52:31.536Z,23.41
2023-08-11T18:55:34.466Z,23.41
2023-08-11T18:58:37.347Z,23.38
2023-08-11T19:01:41.887Z,23.39
2023-08-11T19:04:45.194Z,23.37
2023-08-11T19:07:48.144Z,23.36
2023-08-11T19:10:51.110Z,23.36
2023-08-11T19:13:54.538Z,23.36
2023-08-11T19:16:58.872Z,23.36
2023-08-11T19:20:03.008Z,23.35
2023-08-11T19:23:06.100Z,23.34
2023-08-11T19:26:09.026Z,23.32
2023-08-11T19:29:13.439Z,23.31
2023-08-11T19:32:18.309Z,23.29
2023-08-11T19:35:21.300Z,23.29
2023-08-11T19:38:24.191Z,23.28
2023-08-11T19:41:27.125Z,23.28
2023-08-11T19:44:30.177Z,23.27
2023-08-11T19:47:34.490Z,23.28
2023-08-11T19:50:37.650Z,23.27
2023-08-11T19:53:40.660Z,23.27
2023-08-11T19:56:44.069Z,23.27
2023-08-11T19:59:47.215Z,23.26
2023-08-11T20:02:51.503Z,23.26
2023-08-11T20:05:54.479Z,23.24
2023-08-11T20:08:57.749Z,23.23
2023-08-11T20:12:00.629Z,23.22
2023-08-11T20:15:03.568Z,23.22
2023-08-11T20:18:07.952Z,23.21
2023-08-11T20:21:11.068Z,23.21
2023-08-11T20:24:14.055Z,23.22
2023-08-11T20:27:17.049Z,23.22
2023-08-11T20:30:20.182Z,23.22
2023-08-11T20:33:24.468Z,23.21
2023-08-11T20:36:27.837Z,23.21
2023-08-11T20:39:30.805Z,23.22
2023-08-11T20:42:33.955Z,23.22
2023-08-11T20:45:36.924Z,23.20
2023-08-11T20:48:41.242Z,23.20
2023-08-11T20:51:45.018Z,23.18
2023-08-11T20:54:48.635Z,23.18
2023-08-11T20:57:51.561Z,23.17
2023-08-11T21:00:54.535Z,23.17
2023-08-11T21:03:58.916Z,23.16
2023-08-11T21:07:01.922Z,23.15
2023-08-11T21:10:07.317Z,23.15
2023-08-11T21:13:10.286Z,23.14
2023-08-11T21:16:13.231Z,23.14
2023-08-11T21:19:17.538Z,23.14
2023-08-11T21:22:20.702Z,23.14
2023-08-11T21:25:23.586Z,23.13
2023-08-11T21:28:26.561Z,23.13
2023-08-11T21:31:29.571Z,23.14
2023-08-11T21:34:33.935Z,23.15
2023-08-11T21:37:36.851Z,23.14
2023-08-11T21:40:39.773Z,23.14
2023-08-11T21:43:42.803Z,23.14
2023-08-11T21:46:45.818Z,23.14
2023-08-11T21:49:50.141Z,23.13
2023-08-11T21:52:53.188Z,23.12
2023-08-11T21:55:56.328Z,23.10
2023-08-11T21:58:59.244Z,23.10
2023-08-11T22:02:02.205Z,23.09
2023-08-11T22:05:07.030Z,23.08
2023-08-11T22:08:10.055Z,23.08
2023-08-11T22:11:25.972Z,23.08
2023-08-11T22:14:36.404Z,23.07
2023-08-11T22:17:39.490Z,23.07
2023-08-11T22:20:44.277Z,23.06
2023-08-11T22:23:47.206Z,23.07
2023-08-11T22:26:50.468Z,23.06
2023-08-11T22:29:54.090Z,23.06
2023-08-11T22:32:57.107Z,23.05
2023-08-11T22:36:01.455Z,23.05
2023-08-11T22:39:04.968Z,23.03
2023-08-11T22:42:08.068Z,23.03
2023-08-11T22:45:11.221Z,23.02
2023-08-11T22:48:14.198Z,23.02
2023-08-11T22:51:18.540Z,23.02
2023-08-11T22:54:21.477Z,23.02
2023-08-11T22:57:26.338Z,23.02
2023-08-11T23:00:29.300Z,23.01
2023-08-11T23:03:32.287Z,23.02
2023-08-11T23:06:36.653Z,23.02
2023-08-11T23:09:39.572Z,23.00
2023-08-11T23:12:42.536Z,23.00
2023-08-11T23:15:45.777Z,23.00
2023-08-11T23:18:48.779Z,22.99
2023-08-11T23:21:53.112Z,22.99
2023-08-11T23:24:56.093Z,22.98
2023-08-11T23:27:58.969Z,22.98
2023-08-11T23:31:01.887Z,22.96
2023-08-11T23:34:05.241Z,22.96
2023-08-11T23:37:09.876Z,22.97
2023-08-11T23:40:13.775Z,22.96
2023-08-11T23:43:16.893Z,22.96
2023-08-11T23:46:19.852Z,22.96
2023-08-11T23:49:22.740Z,22.95
2023-08-11T23:52:27.703Z,22.95
2023-08-11T23:55:30.992Z,22.95
2023-08-11T23:58:33.916Z,22.94
